sensor_id;sensor_type;location;lat;lon;timestamp;P1;durP1;ratioP1;P2;durP2;ratioP2
21162;SDS011;10739;52.198;20.908;2023-07-20T00:01:25;8.38;;;2.95;;
21162;SDS011;10739;52.198;20.908;2023-07-20T00:03:51;9.30;;;2.90;;
21162;SDS011;10739;52.198;20.908;2023-07-20T00:06:24;5.57;;;2.78;;
21162;SDS011;10739;52.198;20.908;2023-07-20T00:08:55;5.28;;;2.92;;
21162;SDS011;10739;52.198;20.908;2023-07-20T00:11:25;6.03;;;2.83;;
21162;SDS011;10739;52.198;20.908;2023-07-20T00:13:53;5.22;;;2.63;;
21162;SDS011;10739;52.198;20.908;2023-07-20T00:16:19;4.88;;;2.70;;
21162;SDS011;10739;52.198;20.908;2023-07-20T00:18:45;6.28;;;3.38;;
21162;SDS011;10739;52.198;20.908;2023-07-20T00:21:11;6.50;;;3.03;;
21162;SDS011;10739;52.198;20.908;2023-07-20T00:23:37;6.68;;;3.15;;
21162;SDS011;10739;52.198;20.908;2023-07-20T00:26:04;5.55;;;2.40;;
21162;SDS011;10739;52.198;20.908;2023-07-20T00:28:30;7.70;;;2.78;;
21162;SDS011;10739;52.198;20.908;2023-07-20T00:30:56;5.22;;;2.90;;
21162;SDS011;10739;52.198;20.908;2023-07-20T00:33:25;7.00;;;2.92;;
21162;SDS011;10739;52.198;20.908;2023-07-20T00:35:51;10.05;;;3.13;;
21162;SDS011;10739;52.198;20.908;2023-07-20T00:38:16;3.78;;;2.63;;
21162;SDS011;10739;52.198;20.908;2023-07-20T00:40:42;4.60;;;2.97;;
21162;SDS011;10739;52.198;20.908;2023-07-20T00:43:09;7.10;;;3.45;;
21162;SDS011;10739;52.198;20.908;2023-07-20T00:45:35;9.02;;;3.88;;
21162;SDS011;10739;52.198;20.908;2023-07-20T00:48:02;8.43;;;3.20;;
21162;SDS011;10739;52.198;20.908;2023-07-20T00:50:32;5.38;;;3.22;;
21162;SDS011;10739;52.198;20.908;2023-07-20T00:53:00;11.23;;;2.88;;
21162;SDS011;10739;52.198;20.908;2023-07-20T00:55:32;5.60;;;2.58;;
21162;SDS011;10739;52.198;20.908;2023-07-20T00:57:59;4.72;;;3.10;;
21162;SDS011;10739;52.198;20.908;2023-07-20T01:00:26;6.35;;;3.05;;
21162;SDS011;10739;52.198;20.908;2023-07-20T01:02:53;9.25;;;2.88;;
21162;SDS011;10739;52.198;20.908;2023-07-20T01:05:19;8.02;;;2.72;;
21162;SDS011;10739;52.198;20.908;2023-07-20T01:07:58;4.22;;;2.97;;
21162;SDS011;10739;52.198;20.908;2023-07-20T01:10:41;6.55;;;3.00;;
21162;SDS011;10739;52.198;20.908;2023-07-20T01:13:16;6.13;;;3.13;;
21162;SDS011;10739;52.198;20.908;2023-07-20T01:15:56;5.90;;;2.90;;
21162;SDS011;10739;52.198;20.908;2023-07-20T01:18:26;9.65;;;3.05;;
21162;SDS011;10739;52.198;20.908;2023-07-20T01:20:53;3.10;;;2.67;;
21162;SDS011;10739;52.198;20.908;2023-07-20T01:31:56;5.18;;;3.13;;
21162;SDS011;10739;52.198;20.908;2023-07-20T01:34:24;10.63;;;3.28;;
21162;SDS011;10739;52.198;20.908;2023-07-20T01:36:52;6.13;;;2.75;;
21162;SDS011;10739;52.198;20.908;2023-07-20T01:39:20;6.00;;;3.20;;
21162;SDS011;10739;52.198;20.908;2023-07-20T01:41:47;3.15;;;2.72;;
21162;SDS011;10739;52.198;20.908;2023-07-20T01:44:13;4.32;;;2.80;;
21162;SDS011;10739;52.198;20.908;2023-07-20T01:46:39;3.92;;;2.92;;
21162;SDS011;10739;52.198;20.908;2023-07-20T01:49:05;6.28;;;2.92;;
21162;SDS011;10739;52.198;20.908;2023-07-20T01:51:31;3.38;;;2.42;;
21162;SDS011;10739;52.198;20.908;2023-07-20T01:53:58;4.50;;;2.92;;
21162;SDS011;10739;52.198;20.908;2023-07-20T01:56:25;4.60;;;2.92;;
21162;SDS011;10739;52.198;20.908;2023-07-20T01:58:51;6.65;;;3.28;;
21162;SDS011;10739;52.198;20.908;2023-07-20T02:01:17;7.68;;;2.97;;
21162;SDS011;10739;52.198;20.908;2023-07-20T02:03:43;6.22;;;3.25;;
21162;SDS011;10739;52.198;20.908;2023-07-20T02:06:09;7.53;;;3.40;;
21162;SDS011;10739;52.198;20.908;2023-07-20T02:08:35;6.07;;;3.10;;
21162;SDS011;10739;52.198;20.908;2023-07-20T02:11:01;4.13;;;3.00;;
21162;SDS011;10739;52.198;20.908;2023-07-20T02:13:27;5.38;;;2.92;;
21162;SDS011;10739;52.198;20.908;2023-07-20T02:15:54;7.15;;;3.00;;
21162;SDS011;10739;52.198;20.908;2023-07-20T02:18:20;5.88;;;2.70;;
21162;SDS011;10739;52.198;20.908;2023-07-20T02:20:46;9.07;;;3.17;;
21162;SDS011;10739;52.198;20.908;2023-07-20T02:23:12;5.28;;;3.30;;
21162;SDS011;10739;52.198;20.908;2023-07-20T02:25:38;8.20;;;2.88;;
21162;SDS011;10739;52.198;20.908;2023-07-20T02:28:04;6.30;;;3.55;;
21162;SDS011;10739;52.198;20.908;2023-07-20T02:30:33;7.93;;;3.97;;
21162;SDS011;10739;52.198;20.908;2023-07-20T02:33:03;9.45;;;3.67;;
21162;SDS011;10739;52.198;20.908;2023-07-20T02:35:30;7.03;;;4.00;;
21162;SDS011;10739;52.198;20.908;2023-07-20T02:37:56;13.00;;;4.05;;
21162;SDS011;10739;52.198;20.908;2023-07-20T02:40:22;8.23;;;4.32;;
21162;SDS011;10739;52.198;20.908;2023-07-20T02:42:49;8.20;;;4.05;;
21162;SDS011;10739;52.198;20.908;2023-07-20T02:45:15;6.20;;;3.85;;
21162;SDS011;10739;52.198;20.908;2023-07-20T02:47:41;12.23;;;4.15;;
21162;SDS011;10739;52.198;20.908;2023-07-20T02:50:08;12.73;;;4.03;;
21162;SDS011;10739;52.198;20.908;2023-07-20T02:52:34;10.35;;;4.07;;
21162;SDS011;10739;52.198;20.908;2023-07-20T02:55:00;11.50;;;4.15;;
21162;SDS011;10739;52.198;20.908;2023-07-20T02:57:27;8.18;;;3.90;;
21162;SDS011;10739;52.198;20.908;2023-07-20T02:59:53;5.78;;;3.67;;
21162;SDS011;10739;52.198;20.908;2023-07-20T03:02:20;6.50;;;4.13;;
21162;SDS011;10739;52.198;20.908;2023-07-20T03:04:46;4.78;;;3.20;;
21162;SDS011;10739;52.198;20.908;2023-07-20T03:07:13;8.38;;;3.70;;
21162;SDS011;10739;52.198;20.908;2023-07-20T03:09:45;6.55;;;3.85;;
21162;SDS011;10739;52.198;20.908;2023-07-20T03:12:11;4.40;;;3.08;;
21162;SDS011;10739;52.198;20.908;2023-07-20T03:14:37;10.63;;;3.78;;
21162;SDS011;10739;52.198;20.908;2023-07-20T03:17:03;5.15;;;3.17;;
21162;SDS011;10739;52.198;20.908;2023-07-20T03:19:30;6.43;;;3.40;;
21162;SDS011;10739;52.198;20.908;2023-07-20T03:21:56;5.25;;;3.10;;
21162;SDS011;10739;52.198;20.908;2023-07-20T03:24:22;4.40;;;3.15;;
21162;SDS011;10739;52.198;20.908;2023-07-20T03:26:49;6.88;;;4.32;;
21162;SDS011;10739;52.198;20.908;2023-07-20T03:29:15;12.60;;;3.60;;
21162;SDS011;10739;52.198;20.908;2023-07-20T03:31:41;4.47;;;3.50;;
21162;SDS011;10739;52.198;20.908;2023-07-20T03:34:07;9.95;;;3.40;;
21162;SDS011;10739;52.198;20.908;2023-07-20T03:36:34;8.90;;;3.47;;
21162;SDS011;10739;52.198;20.908;2023-07-20T03:39:00;8.45;;;3.40;;
21162;SDS011;10739;52.198;20.908;2023-07-20T03:41:28;7.85;;;3.60;;
21162;SDS011;10739;52.198;20.908;2023-07-20T03:43:54;8.52;;;3.80;;
21162;SDS011;10739;52.198;20.908;2023-07-20T03:46:21;7.57;;;3.47;;
21162;SDS011;10739;52.198;20.908;2023-07-20T03:48:47;10.77;;;3.78;;
21162;SDS011;10739;52.198;20.908;2023-07-20T03:51:14;6.32;;;4.05;;
21162;SDS011;10739;52.198;20.908;2023-07-20T03:53:40;8.40;;;3.60;;
21162;SDS011;10739;52.198;20.908;2023-07-20T03:56:07;4.65;;;3.85;;
21162;SDS011;10739;52.198;20.908;2023-07-20T03:58:33;6.47;;;4.30;;
21162;SDS011;10739;52.198;20.908;2023-07-20T04:01:00;10.00;;;4.18;;
21162;SDS011;10739;52.198;20.908;2023-07-20T04:03:26;15.70;;;4.60;;
21162;SDS011;10739;52.198;20.908;2023-07-20T04:05:53;11.60;;;4.55;;
21162;SDS011;10739;52.198;20.908;2023-07-20T04:08:23;10.63;;;4.80;;
21162;SDS011;10739;52.198;20.908;2023-07-20T04:10:52;6.88;;;4.50;;
21162;SDS011;10739;52.198;20.908;2023-07-20T04:13:18;9.68;;;4.85;;
21162;SDS011;10739;52.198;20.908;2023-07-20T04:15:45;7.30;;;4.47;;
21162;SDS011;10739;52.198;20.908;2023-07-20T04:18:11;11.52;;;5.13;;
21162;SDS011;10739;52.198;20.908;2023-07-20T04:20:37;8.00;;;5.85;;
21162;SDS011;10739;52.198;20.908;2023-07-20T04:23:05;10.32;;;5.57;;
21162;SDS011;10739;52.198;20.908;2023-07-20T04:25:31;10.07;;;6.32;;
21162;SDS011;10739;52.198;20.908;2023-07-20T04:28:04;10.57;;;5.95;;
21162;SDS011;10739;52.198;20.908;2023-07-20T04:30:35;11.23;;;6.22;;
21162;SDS011;10739;52.198;20.908;2023-07-20T04:33:03;7.68;;;5.57;;
21162;SDS011;10739;52.198;20.908;2023-07-20T04:38:19;12.05;;;6.65;;
21162;SDS011;10739;52.198;20.908;2023-07-20T04:40:46;13.35;;;6.13;;
21162;SDS011;10739;52.198;20.908;2023-07-20T04:43:15;10.60;;;6.53;;
21162;SDS011;10739;52.198;20.908;2023-07-20T04:45:43;8.80;;;6.03;;
21162;SDS011;10739;52.198;20.908;2023-07-20T04:48:10;10.55;;;6.38;;
21162;SDS011;10739;52.198;20.908;2023-07-20T04:50:40;10.30;;;6.10;;
21162;SDS011;10739;52.198;20.908;2023-07-20T04:53:09;10.80;;;5.68;;
21162;SDS011;10739;52.198;20.908;2023-07-20T04:55:36;12.80;;;5.80;;
21162;SDS011;10739;52.198;20.908;2023-07-20T04:58:03;9.70;;;6.03;;
21162;SDS011;10739;52.198;20.908;2023-07-20T05:00:31;14.10;;;7.03;;
21162;SDS011;10739;52.198;20.908;2023-07-20T05:02:59;7.35;;;5.55;;
21162;SDS011;10739;52.198;20.908;2023-07-20T05:05:25;11.60;;;5.35;;
21162;SDS011;10739;52.198;20.908;2023-07-20T05:07:51;11.15;;;5.60;;
21162;SDS011;10739;52.198;20.908;2023-07-20T05:10:18;11.32;;;5.43;;
21162;SDS011;10739;52.198;20.908;2023-07-20T05:12:44;7.32;;;5.22;;
21162;SDS011;10739;52.198;20.908;2023-07-20T05:15:10;12.65;;;5.57;;
21162;SDS011;10739;52.198;20.908;2023-07-20T05:17:37;9.02;;;6.00;;
21162;SDS011;10739;52.198;20.908;2023-07-20T05:20:04;11.73;;;5.45;;
21162;SDS011;10739;52.198;20.908;2023-07-20T05:22:31;10.43;;;5.85;;
21162;SDS011;10739;52.198;20.908;2023-07-20T05:24:58;11.10;;;6.20;;
21162;SDS011;10739;52.198;20.908;2023-07-20T05:27:24;10.20;;;6.03;;
21162;SDS011;10739;52.198;20.908;2023-07-20T05:29:50;11.07;;;6.10;;
21162;SDS011;10739;52.198;20.908;2023-07-20T05:32:16;11.90;;;5.70;;
21162;SDS011;10739;52.198;20.908;2023-07-20T05:34:42;8.73;;;5.60;;
21162;SDS011;10739;52.198;20.908;2023-07-20T05:37:09;8.25;;;5.88;;
21162;SDS011;10739;52.198;20.908;2023-07-20T05:39:35;10.07;;;5.95;;
21162;SDS011;10739;52.198;20.908;2023-07-20T05:42:01;7.88;;;5.50;;
21162;SDS011;10739;52.198;20.908;2023-07-20T05:44:27;6.38;;;5.38;;
21162;SDS011;10739;52.198;20.908;2023-07-20T05:46:53;10.23;;;6.10;;
21162;SDS011;10739;52.198;20.908;2023-07-20T05:49:20;10.23;;;5.70;;
21162;SDS011;10739;52.198;20.908;2023-07-20T05:51:46;10.15;;;5.45;;
21162;SDS011;10739;52.198;20.908;2023-07-20T05:54:13;11.57;;;5.50;;
21162;SDS011;10739;52.198;20.908;2023-07-20T05:56:39;8.82;;;5.65;;
21162;SDS011;10739;52.198;20.908;2023-07-20T05:59:05;6.53;;;5.28;;
21162;SDS011;10739;52.198;20.908;2023-07-20T06:01:31;12.73;;;5.43;;
21162;SDS011;10739;52.198;20.908;2023-07-20T06:03:57;8.95;;;5.70;;
21162;SDS011;10739;52.198;20.908;2023-07-20T06:06:24;9.77;;;6.18;;
21162;SDS011;10739;52.198;20.908;2023-07-20T06:08:51;9.30;;;5.53;;
21162;SDS011;10739;52.198;20.908;2023-07-20T06:11:17;8.35;;;5.57;;
21162;SDS011;10739;52.198;20.908;2023-07-20T06:13:43;10.35;;;5.40;;
21162;SDS011;10739;52.198;20.908;2023-07-20T06:16:09;9.15;;;5.70;;
21162;SDS011;10739;52.198;20.908;2023-07-20T06:18:36;6.43;;;5.47;;
21162;SDS011;10739;52.198;20.908;2023-07-20T06:21:02;8.48;;;5.80;;
21162;SDS011;10739;52.198;20.908;2023-07-20T06:23:28;8.02;;;5.57;;
21162;SDS011;10739;52.198;20.908;2023-07-20T06:25:54;9.32;;;6.00;;
21162;SDS011;10739;52.198;20.908;2023-07-20T06:28:20;10.98;;;5.93;;
21162;SDS011;10739;52.198;20.908;2023-07-20T06:30:46;7.35;;;5.55;;
21162;SDS011;10739;52.198;20.908;2023-07-20T06:33:13;9.18;;;5.47;;
21162;SDS011;10739;52.198;20.908;2023-07-20T06:35:41;7.88;;;6.15;;
21162;SDS011;10739;52.198;20.908;2023-07-20T06:38:08;10.40;;;6.00;;
21162;SDS011;10739;52.198;20.908;2023-07-20T06:40:34;7.28;;;5.60;;
21162;SDS011;10739;52.198;20.908;2023-07-20T06:43:00;10.63;;;5.57;;
21162;SDS011;10739;52.198;20.908;2023-07-20T06:45:26;10.00;;;6.38;;
21162;SDS011;10739;52.198;20.908;2023-07-20T06:47:52;9.65;;;5.50;;
21162;SDS011;10739;52.198;20.908;2023-07-20T06:50:18;13.40;;;6.32;;
21162;SDS011;10739;52.198;20.908;2023-07-20T06:52:45;7.80;;;5.88;;
21162;SDS011;10739;52.198;20.908;2023-07-20T06:55:13;7.85;;;6.20;;
21162;SDS011;10739;52.198;20.908;2023-07-20T06:57:40;9.27;;;6.47;;
21162;SDS011;10739;52.198;20.908;2023-07-20T07:00:06;12.27;;;6.40;;
21162;SDS011;10739;52.198;20.908;2023-07-20T07:02:33;9.93;;;6.43;;
21162;SDS011;10739;52.198;20.908;2023-07-20T07:04:59;10.23;;;6.43;;
21162;SDS011;10739;52.198;20.908;2023-07-20T07:07:27;10.32;;;7.03;;
21162;SDS011;10739;52.198;20.908;2023-07-20T07:09:53;12.13;;;7.00;;
21162;SDS011;10739;52.198;20.908;2023-07-20T07:12:19;17.10;;;7.35;;
21162;SDS011;10739;52.198;20.908;2023-07-20T07:14:46;9.52;;;6.68;;
21162;SDS011;10739;52.198;20.908;2023-07-20T07:17:11;9.82;;;6.63;;
21162;SDS011;10739;52.198;20.908;2023-07-20T07:19:37;11.40;;;6.90;;
21162;SDS011;10739;52.198;20.908;2023-07-20T07:22:04;10.55;;;6.60;;
21162;SDS011;10739;52.198;20.908;2023-07-20T07:24:30;11.20;;;7.05;;
21162;SDS011;10739;52.198;20.908;2023-07-20T07:26:59;12.95;;;7.22;;
21162;SDS011;10739;52.198;20.908;2023-07-20T07:29:26;10.77;;;6.90;;
21162;SDS011;10739;52.198;20.908;2023-07-20T07:31:52;12.65;;;7.72;;
21162;SDS011;10739;52.198;20.908;2023-07-20T07:34:22;14.65;;;6.82;;
21162;SDS011;10739;52.198;20.908;2023-07-20T07:36:48;12.65;;;7.38;;
21162;SDS011;10739;52.198;20.908;2023-07-20T07:39:15;8.93;;;6.55;;
21162;SDS011;10739;52.198;20.908;2023-07-20T07:41:41;9.80;;;6.25;;
21162;SDS011;10739;52.198;20.908;2023-07-20T07:44:07;8.93;;;5.90;;
21162;SDS011;10739;52.198;20.908;2023-07-20T07:46:34;12.02;;;6.55;;
21162;SDS011;10739;52.198;20.908;2023-07-20T07:49:00;11.02;;;6.00;;
21162;SDS011;10739;52.198;20.908;2023-07-20T07:51:26;11.32;;;6.82;;
21162;SDS011;10739;52.198;20.908;2023-07-20T07:53:52;14.93;;;6.50;;
21162;SDS011;10739;52.198;20.908;2023-07-20T07:56:19;9.77;;;6.55;;
21162;SDS011;10739;52.198;20.908;2023-07-20T07:58:50;10.70;;;7.15;;
21162;SDS011;10739;52.198;20.908;2023-07-20T08:01:17;10.43;;;6.90;;
21162;SDS011;10739;52.198;20.908;2023-07-20T08:03:47;11.00;;;7.25;;
21162;SDS011;10739;52.198;20.908;2023-07-20T08:06:14;16.17;;;7.75;;
21162;SDS011;10739;52.198;20.908;2023-07-20T08:08:40;15.50;;;8.60;;
21162;SDS011;10739;52.198;20.908;2023-07-20T08:11:08;14.90;;;8.25;;
21162;SDS011;10739;52.198;20.908;2023-07-20T08:13:35;13.45;;;8.98;;
21162;SDS011;10739;52.198;20.908;2023-07-20T08:16:02;13.90;;;8.73;;
21162;SDS011;10739;52.198;20.908;2023-07-20T08:18:28;14.75;;;8.88;;
21162;SDS011;10739;52.198;20.908;2023-07-20T08:20:54;14.18;;;8.82;;
21162;SDS011;10739;52.198;20.908;2023-07-20T08:23:21;20.25;;;8.20;;
21162;SDS011;10739;52.198;20.908;2023-07-20T08:25:47;11.88;;;8.07;;
21162;SDS011;10739;52.198;20.908;2023-07-20T08:28:14;11.25;;;7.57;;
21162;SDS011;10739;52.198;20.908;2023-07-20T08:30:45;13.13;;;7.18;;
21162;SDS011;10739;52.198;20.908;2023-07-20T08:33:14;13.35;;;7.35;;
21162;SDS011;10739;52.198;20.908;2023-07-20T08:35:46;13.25;;;7.20;;
21162;SDS011;10739;52.198;20.908;2023-07-20T08:38:13;9.13;;;6.50;;
21162;SDS011;10739;52.198;20.908;2023-07-20T08:40:40;9.77;;;6.50;;
21162;SDS011;10739;52.198;20.908;2023-07-20T08:43:12;12.05;;;6.93;;
21162;SDS011;10739;52.198;20.908;2023-07-20T08:48:10;10.50;;;6.78;;
21162;SDS011;10739;52.198;20.908;2023-07-20T08:50:38;8.93;;;6.15;;
21162;SDS011;10739;52.198;20.908;2023-07-20T08:53:06;7.57;;;5.15;;
21162;SDS011;10739;52.198;20.908;2023-07-20T08:55:35;7.60;;;4.03;;
21162;SDS011;10739;52.198;20.908;2023-07-20T08:58:02;4.93;;;3.95;;
21162;SDS011;10739;52.198;20.908;2023-07-20T09:00:33;4.30;;;3.58;;
21162;SDS011;10739;52.198;20.908;2023-07-20T09:03:01;7.57;;;4.15;;
21162;SDS011;10739;52.198;20.908;2023-07-20T09:05:30;5.13;;;3.88;;
21162;SDS011;10739;52.198;20.908;2023-07-20T09:07:56;8.30;;;3.97;;
21162;SDS011;10739;52.198;20.908;2023-07-20T09:10:23;5.03;;;4.18;;
21162;SDS011;10739;52.198;20.908;2023-07-20T09:12:50;6.38;;;4.10;;
21162;SDS011;10739;52.198;20.908;2023-07-20T09:15:16;4.78;;;3.70;;
21162;SDS011;10739;52.198;20.908;2023-07-20T09:17:46;4.50;;;4.10;;
21162;SDS011;10739;52.198;20.908;2023-07-20T09:20:14;7.07;;;4.47;;
21162;SDS011;10739;52.198;20.908;2023-07-20T09:22:44;4.50;;;4.10;;
21162;SDS011;10739;52.198;20.908;2023-07-20T09:25:11;6.65;;;3.95;;
21162;SDS011;10739;52.198;20.908;2023-07-20T09:27:49;5.07;;;3.40;;
21162;SDS011;10739;52.198;20.908;2023-07-20T09:30:16;3.58;;;3.15;;
21162;SDS011;10739;52.198;20.908;2023-07-20T09:32:43;4.72;;;3.47;;
21162;SDS011;10739;52.198;20.908;2023-07-20T09:35:13;4.65;;;3.60;;
21162;SDS011;10739;52.198;20.908;2023-07-20T09:37:41;6.88;;;3.85;;
21162;SDS011;10739;52.198;20.908;2023-07-20T09:40:28;6.00;;;3.67;;
21162;SDS011;10739;52.198;20.908;2023-07-20T09:42:55;7.00;;;3.90;;
21162;SDS011;10739;52.198;20.908;2023-07-20T09:45:30;10.60;;;3.78;;
21162;SDS011;10739;52.198;20.908;2023-07-20T09:48:04;6.20;;;3.22;;
21162;SDS011;10739;52.198;20.908;2023-07-20T09:50:41;9.23;;;3.42;;
21162;SDS011;10739;52.198;20.908;2023-07-20T09:53:13;5.53;;;3.63;;
21162;SDS011;10739;52.198;20.908;2023-07-20T09:55:46;4.53;;;3.22;;
21162;SDS011;10739;52.198;20.908;2023-07-20T09:58:14;4.82;;;3.20;;
21162;SDS011;10739;52.198;20.908;2023-07-20T10:00:41;5.40;;;2.85;;
21162;SDS011;10739;52.198;20.908;2023-07-20T10:03:12;4.10;;;2.90;;
21162;SDS011;10739;52.198;20.908;2023-07-20T10:05:46;8.23;;;3.30;;
21162;SDS011;10739;52.198;20.908;2023-07-20T10:08:18;7.13;;;3.20;;
21162;SDS011;10739;52.198;20.908;2023-07-20T10:10:49;4.40;;;3.10;;
21162;SDS011;10739;52.198;20.908;2023-07-20T10:13:25;3.42;;;2.95;;
21162;SDS011;10739;52.198;20.908;2023-07-20T10:15:54;7.53;;;3.38;;
21162;SDS011;10739;52.198;20.908;2023-07-20T10:18:29;6.47;;;2.95;;
21162;SDS011;10739;52.198;20.908;2023-07-20T10:21:18;4.10;;;2.95;;
21162;SDS011;10739;52.198;20.908;2023-07-20T10:23:48;4.38;;;3.20;;
21162;SDS011;10739;52.198;20.908;2023-07-20T10:26:15;3.75;;;3.10;;
21162;SDS011;10739;52.198;20.908;2023-07-20T10:28:41;5.97;;;3.38;;
21162;SDS011;10739;52.198;20.908;2023-07-20T10:31:08;6.30;;;3.30;;
21162;SDS011;10739;52.198;20.908;2023-07-20T10:33:38;7.90;;;3.22;;
21162;SDS011;10739;52.198;20.908;2023-07-20T10:36:06;4.25;;;3.47;;
21162;SDS011;10739;52.198;20.908;2023-07-20T10:38:39;8.75;;;3.15;;
21162;SDS011;10739;52.198;20.908;2023-07-20T10:41:29;4.55;;;3.10;;
21162;SDS011;10739;52.198;20.908;2023-07-20T10:44:08;5.35;;;2.58;;
21162;SDS011;10739;52.198;20.908;2023-07-20T10:49:08;6.75;;;2.78;;
21162;SDS011;10739;52.198;20.908;2023-07-20T10:51:42;5.78;;;2.40;;
21162;SDS011;10739;52.198;20.908;2023-07-20T10:56:43;3.53;;;2.47;;
21162;SDS011;10739;52.198;20.908;2023-07-20T10:59:20;3.42;;;2.53;;
21162;SDS011;10739;52.198;20.908;2023-07-20T11:02:06;4.13;;;2.70;;
21162;SDS011;10739;52.198;20.908;2023-07-20T11:04:43;4.70;;;2.65;;
21162;SDS011;10739;52.198;20.908;2023-07-20T11:07:15;4.00;;;2.40;;
21162;SDS011;10739;52.198;20.908;2023-07-20T11:10:12;3.75;;;2.63;;
21162;SDS011;10739;52.198;20.908;2023-07-20T11:13:12;3.93;;;2.70;;
21162;SDS011;10739;52.198;20.908;2023-07-20T11:18:22;6.20;;;2.53;;
21162;SDS011;10739;52.198;20.908;2023-07-20T11:20:51;3.28;;;2.58;;
21162;SDS011;10739;52.198;20.908;2023-07-20T11:23:22;2.55;;;2.08;;
21162;SDS011;10739;52.198;20.908;2023-07-20T11:25:48;3.45;;;2.60;;
21162;SDS011;10739;52.198;20.908;2023-07-20T11:28:15;4.85;;;2.95;;
21162;SDS011;10739;52.198;20.908;2023-07-20T11:30:42;4.18;;;2.60;;
21162;SDS011;10739;52.198;20.908;2023-07-20T11:33:08;2.95;;;2.55;;
21162;SDS011;10739;52.198;20.908;2023-07-20T11:35:35;3.22;;;2.70;;
21162;SDS011;10739;52.198;20.908;2023-07-20T11:38:08;3.80;;;2.90;;
21162;SDS011;10739;52.198;20.908;2023-07-20T11:40:34;5.22;;;2.92;;
21162;SDS011;10739;52.198;20.908;2023-07-20T11:43:01;6.28;;;2.78;;
21162;SDS011;10739;52.198;20.908;2023-07-20T11:45:28;3.70;;;2.50;;
21162;SDS011;10739;52.198;20.908;2023-07-20T11:47:58;2.78;;;2.50;;
21162;SDS011;10739;52.198;20.908;2023-07-20T11:50:25;5.10;;;2.40;;
21162;SDS011;10739;52.198;20.908;2023-07-20T11:52:51;4.18;;;2.42;;
21162;SDS011;10739;52.198;20.908;2023-07-20T11:55:18;4.57;;;2.50;;
21162;SDS011;10739;52.198;20.908;2023-07-20T11:58:00;5.53;;;2.80;;
21162;SDS011;10739;52.198;20.908;2023-07-20T12:00:28;5.00;;;2.70;;
21162;SDS011;10739;52.198;20.908;2023-07-20T12:02:54;4.32;;;2.50;;
21162;SDS011;10739;52.198;20.908;2023-07-20T12:05:24;2.53;;;2.28;;
21162;SDS011;10739;52.198;20.908;2023-07-20T12:07:51;4.15;;;2.97;;
21162;SDS011;10739;52.198;20.908;2023-07-20T12:10:23;2.85;;;2.33;;
21162;SDS011;10739;52.198;20.908;2023-07-20T12:12:54;3.72;;;2.40;;
21162;SDS011;10739;52.198;20.908;2023-07-20T12:15:26;2.83;;;1.83;;
21162;SDS011;10739;52.198;20.908;2023-07-20T12:17:58;3.47;;;2.00;;
21162;SDS011;10739;52.198;20.908;2023-07-20T12:20:31;3.13;;;2.45;;
21162;SDS011;10739;52.198;20.908;2023-07-20T12:25:38;2.92;;;2.25;;
21162;SDS011;10739;52.198;20.908;2023-07-20T12:28:12;4.45;;;2.08;;
21162;SDS011;10739;52.198;20.908;2023-07-20T12:30:41;2.47;;;1.85;;
21162;SDS011;10739;52.198;20.908;2023-07-20T12:33:11;2.38;;;2.10;;
21162;SDS011;10739;52.198;20.908;2023-07-20T12:35:41;2.83;;;2.00;;
21162;SDS011;10739;52.198;20.908;2023-07-20T12:38:08;5.90;;;2.20;;
21162;SDS011;10739;52.198;20.908;2023-07-20T12:40:34;3.00;;;2.30;;
21162;SDS011;10739;52.198;20.908;2023-07-20T12:43:01;2.42;;;2.20;;
21162;SDS011;10739;52.198;20.908;2023-07-20T12:45:29;5.80;;;2.80;;
21162;SDS011;10739;52.198;20.908;2023-07-20T12:47:58;4.93;;;2.53;;
21162;SDS011;10739;52.198;20.908;2023-07-20T12:50:26;4.47;;;2.83;;
21162;SDS011;10739;52.198;20.908;2023-07-20T12:52:53;5.57;;;2.72;;
21162;SDS011;10739;52.198;20.908;2023-07-20T12:55:21;2.97;;;2.60;;
21162;SDS011;10739;52.198;20.908;2023-07-20T12:57:47;3.88;;;2.53;;
21162;SDS011;10739;52.198;20.908;2023-07-20T13:00:13;3.88;;;2.67;;
21162;SDS011;10739;52.198;20.908;2023-07-20T13:02:40;4.10;;;2.45;;
21162;SDS011;10739;52.198;20.908;2023-07-20T13:05:08;2.92;;;2.33;;
21162;SDS011;10739;52.198;20.908;2023-07-20T13:07:36;6.72;;;3.03;;
21162;SDS011;10739;52.198;20.908;2023-07-20T13:10:05;4.40;;;2.92;;
21162;SDS011;10739;52.198;20.908;2023-07-20T13:12:33;4.78;;;3.03;;
21162;SDS011;10739;52.198;20.908;2023-07-20T13:15:03;5.22;;;2.80;;
21162;SDS011;10739;52.198;20.908;2023-07-20T13:17:32;4.88;;;2.95;;
21162;SDS011;10739;52.198;20.908;2023-07-20T13:20:00;6.45;;;3.10;;
21162;SDS011;10739;52.198;20.908;2023-07-20T13:22:26;5.22;;;2.60;;
21162;SDS011;10739;52.198;20.908;2023-07-20T13:24:53;2.55;;;2.35;;
21162;SDS011;10739;52.198;20.908;2023-07-20T13:27:19;5.75;;;2.70;;
21162;SDS011;10739;52.198;20.908;2023-07-20T13:29:45;5.35;;;2.60;;
21162;SDS011;10739;52.198;20.908;2023-07-20T13:32:15;3.88;;;2.63;;
21162;SDS011;10739;52.198;20.908;2023-07-20T13:34:42;5.30;;;2.97;;
21162;SDS011;10739;52.198;20.908;2023-07-20T13:37:12;3.13;;;2.83;;
21162;SDS011;10739;52.198;20.908;2023-07-20T13:39:38;5.22;;;2.85;;
21162;SDS011;10739;52.198;20.908;2023-07-20T13:42:05;3.85;;;2.80;;
21162;SDS011;10739;52.198;20.908;2023-07-20T13:44:32;6.05;;;3.20;;
21162;SDS011;10739;52.198;20.908;2023-07-20T13:47:00;5.03;;;2.95;;
21162;SDS011;10739;52.198;20.908;2023-07-20T13:49:27;4.43;;;2.67;;
21162;SDS011;10739;52.198;20.908;2023-07-20T13:51:54;5.10;;;2.80;;
21162;SDS011;10739;52.198;20.908;2023-07-20T13:54:21;3.85;;;2.60;;
21162;SDS011;10739;52.198;20.908;2023-07-20T13:56:47;3.08;;;2.50;;
21162;SDS011;10739;52.198;20.908;2023-07-20T13:59:14;3.40;;;2.53;;
21162;SDS011;10739;52.198;20.908;2023-07-20T14:01:40;4.70;;;2.58;;
21162;SDS011;10739;52.198;20.908;2023-07-20T14:04:06;4.55;;;2.60;;
21162;SDS011;10739;52.198;20.908;2023-07-20T14:06:37;2.85;;;2.20;;
21162;SDS011;10739;52.198;20.908;2023-07-20T14:09:03;2.67;;;2.08;;
21162;SDS011;10739;52.198;20.908;2023-07-20T14:11:29;4.65;;;2.35;;
21162;SDS011;10739;52.198;20.908;2023-07-20T14:13:55;3.78;;;2.47;;
21162;SDS011;10739;52.198;20.908;2023-07-20T14:16:23;2.88;;;2.58;;
21162;SDS011;10739;52.198;20.908;2023-07-20T14:18:50;2.75;;;1.63;;
21162;SDS011;10739;52.198;20.908;2023-07-20T14:21:18;3.20;;;2.38;;
21162;SDS011;10739;52.198;20.908;2023-07-20T14:23:46;4.50;;;2.00;;
21162;SDS011;10739;52.198;20.908;2023-07-20T14:26:20;2.92;;;2.13;;
21162;SDS011;10739;52.198;20.908;2023-07-20T14:28:47;2.00;;;1.40;;
21162;SDS011;10739;52.198;20.908;2023-07-20T14:31:13;2.22;;;1.70;;
21162;SDS011;10739;52.198;20.908;2023-07-20T14:33:39;3.60;;;2.58;;
21162;SDS011;10739;52.198;20.908;2023-07-20T14:36:05;5.65;;;2.40;;
21162;SDS011;10739;52.198;20.908;2023-07-20T14:38:33;4.65;;;2.42;;
21162;SDS011;10739;52.198;20.908;2023-07-20T14:41:00;4.30;;;2.08;;
21162;SDS011;10739;52.198;20.908;2023-07-20T14:43:26;4.93;;;2.30;;
21162;SDS011;10739;52.198;20.908;2023-07-20T14:45:52;3.15;;;1.98;;
21162;SDS011;10739;52.198;20.908;2023-07-20T14:48:20;3.55;;;2.30;;
21162;SDS011;10739;52.198;20.908;2023-07-20T14:50:46;5.30;;;2.35;;
21162;SDS011;10739;52.198;20.908;2023-07-20T14:53:13;2.63;;;2.17;;
21162;SDS011;10739;52.198;20.908;2023-07-20T14:55:39;2.78;;;2.10;;
21162;SDS011;10739;52.198;20.908;2023-07-20T14:58:07;1.70;;;1.60;;
21162;SDS011;10739;52.198;20.908;2023-07-20T15:00:34;3.03;;;1.73;;